Time;durP1;ratioP1;P1;durP2;ratioP2;P2;SDS_P1;SDS_P2;PMS_P1;PMS_P2;Temp;Humidity;BMP_temperature;BMP_pressure;BME280_temperature;BME280_humidity;BME280_pressure;Samples;Min_cycle;Max_cycle;Signal;HPM_P1;HPM_P2
2022/03/12 00:02:25;;;;;;;101.38;27.60;;;;;;;;;;4972737;28;20352;-61
2022/03/12 00:04:50;;;;;;;97.15;27.23;;;;;;;;;;4973077;28;20380;-62
2022/03/12 00:07:16;;;;;;;99.60;27.20;;;;;;;;;;4972524;28;20392;-61
2022/03/12 00:09:41;;;;;;;89.72;25.13;;;;;;;;;;4972519;28;20051;-61
2022/03/12 00:12:07;;;;;;;105.70;29.95;;;;;;;;;;4972138;28;20095;-61
2022/03/12 00:14:35;;;;;;;80.13;24.17;;;;;;;;;;4972675;28;20368;-62
2022/03/12 00:17:00;;;;;;;83.97;25.98;;;;;;;;;;4972102;28;20437;-62
2022/03/12 00:19:26;;;;;;;86.28;25.13;;;;;;;;;;4949342;28;20513;-62
2022/03/12 00:21:51;;;;;;;89.60;24.73;;;;;;;;;;4952700;28;20445;-64
2022/03/12 00:24:18;;;;;;;95.68;25.80;;;;;;;;;;4935863;28;20339;-61
2022/03/12 00:26:44;;;;;;;85.07;26.63;;;;;;;;;;4952453;28;20487;-61
2022/03/12 00:29:20;;;;;;;88.90;27.02;;;;;;;;;;4952618;28;20112;-62
2022/03/12 00:31:48;;;;;;;86.57;25.30;;;;;;;;;;4952869;28;20021;-62
2022/03/12 00:34:13;;;;;;;100.00;27.80;;;;;;;;;;4952326;28;20056;-62
2022/03/12 00:36:39;;;;;;;96.88;26.55;;;;;;;;;;4953125;28;20429;-62
2022/03/12 00:39:08;;;;;;;92.63;26.20;;;;;;;;;;4952312;28;20353;-62
2022/03/12 00:41:33;;;;;;;102.47;28.83;;;;;;;;;;4952522;28;20299;-62
2022/03/12 00:43:59;;;;;;;81.40;23.73;;;;;;;;;;4952340;28;20381;-62
2022/03/12 00:46:24;;;;;;;93.20;25.83;;;;;;;;;;4951886;28;20466;-62
2022/03/12 00:48:49;;;;;;;91.10;25.17;;;;;;;;;;4952587;28;20421;-62
2022/03/12 00:51:15;;;;;;;92.85;25.10;;;;;;;;;;4952270;28;20413;-63
2022/03/12 00:53:40;;;;;;;93.45;27.33;;;;;;;;;;4952043;28;20591;-61
2022/03/12 00:56:07;;;;;;;90.82;26.20;;;;;;;;;;4952765;28;20440;-61
2022/03/12 00:58:32;;;;;;;80.82;25.27;;;;;;;;;;4952534;28;20392;-62
2022/03/12 01:00:58;;;;;;;83.45;23.10;;;;;;;;;;4956541;28;20092;-62
2022/03/12 01:03:23;;;;;;;82.80;22.77;;;;;;;;;;4957952;28;20411;-62
2022/03/12 01:05:49;;;;;;;77.57;23.13;;;;;;;;;;4953678;28;20464;-61
2022/03/12 01:08:14;;;;;;;84.45;22.40;;;;;;;;;;4953090;28;20425;-62
2022/03/12 01:10:42;;;;;;;87.13;26.23;;;;;;;;;;4951640;28;20431;-62
2022/03/12 01:13:08;;;;;;;67.45;23.27;;;;;;;;;;4951626;28;20311;-61
2022/03/12 01:15:34;;;;;;;82.60;22.88;;;;;;;;;;4952803;28;20404;-61
2022/03/12 01:18:00;;;;;;;81.43;24.40;;;;;;;;;;4951981;28;20417;-61
2022/03/12 01:20:26;;;;;;;78.88;23.00;;;;;;;;;;4951344;28;20318;-61
2022/03/12 01:22:51;;;;;;;73.35;22.15;;;;;;;;;;4951970;28;20349;-62
2022/03/12 01:25:17;;;;;;;76.82;23.25;;;;;;;;;;4951454;28;20372;-61
2022/03/12 01:27:42;;;;;;;72.57;22.20;;;;;;;;;;4951463;28;20510;-62
2022/03/12 01:30:08;;;;;;;73.03;22.48;;;;;;;;;;4951943;28;20411;-62
2022/03/12 01:32:34;;;;;;;66.28;21.25;;;;;;;;;;4951650;28;20353;-62
2022/03/12 01:34:59;;;;;;;63.67;19.80;;;;;;;;;;4951385;28;20441;-62
2022/03/12 01:37:25;;;;;;;58.22;20.83;;;;;;;;;;4951828;28;20495;-61
2022/03/12 01:39:50;;;;;;;62.90;20.20;;;;;;;;;;4951341;28;20409;-63
2022/03/12 01:42:16;;;;;;;65.50;21.05;;;;;;;;;;4951034;28;20561;-61
2022/03/12 01:44:42;;;;;;;60.75;20.23;;;;;;;;;;4951297;28;20524;-61
2022/03/12 01:47:09;;;;;;;58.22;18.48;;;;;;;;;;4963076;28;20395;-61
2022/03/12 01:49:35;;;;;;;65.05;21.10;;;;;;;;;;4970480;28;20450;-62
2022/03/12 01:52:01;;;;;;;57.88;18.90;;;;;;;;;;4970473;28;20317;-62
2022/03/12 01:54:28;;;;;;;58.25;18.52;;;;;;;;;;4970600;28;20322;-61
2022/03/12 01:56:54;;;;;;;56.67;18.13;;;;;;;;;;4970537;28;20456;-62
2022/03/12 01:59:21;;;;;;;61.00;17.85;;;;;;;;;;4970186;28;20084;-62
2022/03/12 02:01:51;;;;;;;57.58;18.45;;;;;;;;;;4971085;28;20387;-62
2022/03/12 02:04:18;;;;;;;49.00;16.17;;;;;;;;;;4971553;28;20056;-61
2022/03/12 02:06:45;;;;;;;58.88;18.13;;;;;;;;;;4970674;28;20318;-61
2022/03/12 02:09:14;;;;;;;55.53;15.32;;;;;;;;;;4970192;28;20472;-62
2022/03/12 02:11:40;;;;;;;54.88;16.33;;;;;;;;;;4969982;28;20384;-62
2022/03/12 02:14:13;;;;;;;52.42;17.48;;;;;;;;;;4969940;28;20341;-61
2022/03/12 02:16:46;;;;;;;50.10;16.58;;;;;;;;;;4952928;28;20332;-63
2022/03/12 02:19:12;;;;;;;48.15;16.85;;;;;;;;;;4970034;28;20379;-61
2022/03/12 02:21:43;;;;;;;52.00;15.52;;;;;;;;;;4969697;28;20334;-62
2022/03/12 02:24:11;;;;;;;42.50;15.50;;;;;;;;;;4968970;28;20056;-61
2022/03/12 02:26:41;;;;;;;42.53;14.60;;;;;;;;;;4971149;28;20507;-61
2022/03/12 02:29:09;;;;;;;43.58;15.82;;;;;;;;;;4969890;28;20437;-61
2022/03/12 02:31:35;;;;;;;50.05;14.85;;;;;;;;;;4969768;28;20025;-61
2022/03/12 02:34:01;;;;;;;44.15;16.05;;;;;;;;;;4970062;28;20056;-62
2022/03/12 02:36:30;;;;;;;46.30;14.85;;;;;;;;;;4969798;28;20395;-61
2022/03/12 02:38:55;;;;;;;45.42;15.60;;;;;;;;;;4969926;28;20431;-61
2022/03/12 02:41:23;;;;;;;44.50;14.80;;;;;;;;;;4971037;28;20059;-62
2022/03/12 02:43:48;;;;;;;43.50;13.77;;;;;;;;;;4969689;28;20436;-61
2022/03/12 02:46:14;;;;;;;38.35;14.40;;;;;;;;;;4951729;28;20349;-62
2022/03/12 02:48:40;;;;;;;45.60;16.67;;;;;;;;;;4970862;28;20457;-61
2022/03/12 02:51:06;;;;;;;44.92;14.30;;;;;;;;;;4970633;28;20407;-61
2022/03/12 02:53:32;;;;;;;38.70;13.90;;;;;;;;;;4968997;28;20068;-65
2022/03/12 02:55:58;;;;;;;41.95;13.25;;;;;;;;;;4969598;28;20029;-62
2022/03/12 02:58:23;;;;;;;43.38;14.18;;;;;;;;;;4969061;28;20463;-62
2022/03/12 03:00:49;;;;;;;39.67;12.25;;;;;;;;;;4969229;28;20029;-61
2022/03/12 03:03:14;;;;;;;47.78;14.07;;;;;;;;;;4969298;28;20041;-62
2022/03/12 03:05:46;;;;;;;40.83;13.52;;;;;;;;;;4969663;28;20487;-62
2022/03/12 03:08:17;;;;;;;37.35;15.13;;;;;;;;;;4969040;28;20445;-62
2022/03/12 03:10:45;;;;;;;34.25;12.52;;;;;;;;;;4969097;28;20088;-61
2022/03/12 03:13:16;;;;;;;36.15;13.77;;;;;;;;;;4969140;28;20030;-63
2022/03/12 03:15:46;;;;;;;32.17;12.48;;;;;;;;;;4969117;28;20412;-61
2022/03/12 03:18:13;;;;;;;40.65;13.02;;;;;;;;;;4969332;28;20483;-62
2022/03/12 03:20:39;;;;;;;37.78;13.15;;;;;;;;;;4968794;28;20425;-62
2022/03/12 03:23:06;;;;;;;40.47;14.18;;;;;;;;;;4969585;28;20455;-61
2022/03/12 03:25:31;;;;;;;33.30;12.32;;;;;;;;;;4970573;28;20037;-62
2022/03/12 03:27:57;;;;;;;34.80;12.52;;;;;;;;;;4969010;28;20513;-61
2022/03/12 03:30:22;;;;;;;48.33;14.50;;;;;;;;;;4970052;28;20449;-62
2022/03/12 03:32:47;;;;;;;36.55;12.63;;;;;;;;;;4968919;28;20451;-61
2022/03/12 03:35:13;;;;;;;39.17;14.45;;;;;;;;;;4968908;28;20520;-61
2022/03/12 03:37:39;;;;;;;34.85;13.20;;;;;;;;;;4972978;28;20547;-61
2022/03/12 03:40:05;;;;;;;37.50;13.45;;;;;;;;;;4974463;28;20492;-62
2022/03/12 03:42:30;;;;;;;38.72;12.63;;;;;;;;;;4973873;28;20379;-62
2022/03/12 03:45:02;;;;;;;38.92;12.60;;;;;;;;;;4973618;28;20452;-61
2022/03/12 03:47:28;;;;;;;28.27;11.93;;;;;;;;;;4972741;28;20298;-61
2022/03/12 03:49:54;;;;;;;34.72;12.27;;;;;;;;;;4972841;28;20452;-62
2022/03/12 03:52:19;;;;;;;36.97;13.02;;;;;;;;;;4972963;28;20353;-62
2022/03/12 03:54:44;;;;;;;33.55;12.13;;;;;;;;;;4973862;28;20388;-61
2022/03/12 03:57:13;;;;;;;33.08;12.13;;;;;;;;;;4972693;28;20425;-61
2022/03/12 03:59:38;;;;;;;32.87;11.47;;;;;;;;;;4972539;28;20512;-62
2022/03/12 04:02:04;;;;;;;28.98;11.50;;;;;;;;;;4972629;28;20341;-61
2022/03/12 04:04:35;;;;;;;30.17;11.25;;;;;;;;;;4972516;28;20360;-61
2022/03/12 04:07:01;;;;;;;30.15;10.38;;;;;;;;;;4974390;28;20488;-61
2022/03/12 04:09:27;;;;;;;33.45;12.27;;;;;;;;;;4973813;28;20322;-61
2022/03/12 04:11:52;;;;;;;34.35;12.18;;;;;;;;;;4954732;28;20579;-61
2022/03/12 04:14:17;;;;;;;28.85;10.60;;;;;;;;;;4972159;28;20103;-61
2022/03/12 04:16:43;;;;;;;23.75;9.77;;;;;;;;;;4972876;28;20498;-61
2022/03/12 04:19:09;;;;;;;31.77;11.00;;;;;;;;;;4973513;28;20029;-61
2022/03/12 04:21:34;;;;;;;26.92;10.70;;;;;;;;;;4971925;28;20455;-61
2022/03/12 04:24:01;;;;;;;29.33;10.57;;;;;;;;;;4972244;28;20049;-61
2022/03/12 04:26:27;;;;;;;31.33;11.48;;;;;;;;;;4973661;28;20033;-61
2022/03/12 04:28:53;;;;;;;27.88;9.95;;;;;;;;;;4972797;28;20463;-61
2022/03/12 04:31:19;;;;;;;30.33;11.05;;;;;;;;;;4954312;28;20413;-61
2022/03/12 04:33:45;;;;;;;29.67;8.98;;;;;;;;;;4972065;28;20290;-61
2022/03/12 04:36:12;;;;;;;22.92;10.18;;;;;;;;;;4971606;28;20120;-61
2022/03/12 04:38:38;;;;;;;25.67;10.70;;;;;;;;;;4972450;28;20432;-61
2022/03/12 04:41:03;;;;;;;28.10;10.48;;;;;;;;;;4971959;28;20433;-61
2022/03/12 04:43:29;;;;;;;22.65;10.07;;;;;;;;;;4971994;28;20318;-61
2022/03/12 04:45:55;;;;;;;29.30;10.38;;;;;;;;;;4970719;28;20364;-61
2022/03/12 04:48:22;;;;;;;24.15;9.13;;;;;;;;;;4971748;28;20439;-61
2022/03/12 04:50:48;;;;;;;28.70;10.45;;;;;;;;;;4971697;28;20435;-62
2022/03/12 04:53:13;;;;;;;29.00;10.55;;;;;;;;;;4971929;28;20318;-61
2022/03/12 04:55:39;;;;;;;26.05;9.18;;;;;;;;;;4972002;28;20387;-61
2022/03/12 04:58:05;;;;;;;28.17;10.02;;;;;;;;;;4971427;28;20372;-61
2022/03/12 05:00:36;;;;;;;24.92;10.20;;;;;;;;;;4971442;28;20357;-61
2022/03/12 05:03:17;;;;;;;24.50;8.85;;;;;;;;;;4971642;28;20056;-62
2022/03/12 05:05:44;;;;;;;22.50;9.07;;;;;;;;;;4971353;28;20510;-61
2022/03/12 05:08:30;;;;;;;26.95;10.23;;;;;;;;;;4971337;28;20380;-61
2022/03/12 05:10:56;;;;;;;25.42;8.68;;;;;;;;;;4971332;28;20352;-62
2022/03/12 05:13:23;;;;;;;26.08;9.35;;;;;;;;;;4971434;28;20574;-61
2022/03/12 05:15:52;;;;;;;20.42;8.15;;;;;;;;;;4971386;28;20582;-63
2022/03/12 05:18:18;;;;;;;21.30;9.40;;;;;;;;;;4971366;28;20344;-62
2022/03/12 05:20:43;;;;;;;22.27;8.65;;;;;;;;;;4971219;28;20469;-61
2022/03/12 05:23:10;;;;;;;21.23;8.43;;;;;;;;;;4971196;28;20321;-61
2022/03/12 05:25:38;;;;;;;20.80;8.60;;;;;;;;;;4972297;28;20029;-62
2022/03/12 05:28:04;;;;;;;21.70;8.50;;;;;;;;;;4971014;28;20512;-62
2022/03/12 05:30:29;;;;;;;21.08;8.20;;;;;;;;;;4970998;28;20375;-62
2022/03/12 05:32:55;;;;;;;21.77;8.02;;;;;;;;;;4970967;28;20112;-61
2022/03/12 05:35:20;;;;;;;22.52;8.50;;;;;;;;;;4971058;28;20325;-61
2022/03/12 05:37:48;;;;;;;24.60;9.20;;;;;;;;;;4970797;28;20479;-61
2022/03/12 05:40:17;;;;;;;21.27;8.93;;;;;;;;;;4970709;28;20413;-61
2022/03/12 05:42:43;;;;;;;23.23;8.55;;;;;;;;;;4972057;28;20337;-61
2022/03/12 05:45:09;;;;;;;21.65;7.72;;;;;;;;;;4970217;28;20576;-61
2022/03/12 05:47:40;;;;;;;16.85;7.60;;;;;;;;;;4970398;28;20076;-62
2022/03/12 05:50:09;;;;;;;19.02;8.73;;;;;;;;;;4971193;28;20476;-62
2022/03/12 05:52:38;;;;;;;22.92;7.68;;;;;;;;;;4971570;28;20322;-61
2022/03/12 05:55:05;;;;;;;17.25;8.02;;;;;;;;;;4952863;28;20506;-62
2022/03/12 05:57:32;;;;;;;24.25;8.50;;;;;;;;;;4970097;28;20386;-61
2022/03/12 05:59:59;;;;;;;21.30;8.23;;;;;;;;;;4971752;28;20022;-61
2022/03/12 06:02:24;;;;;;;15.60;6.85;;;;;;;;;;4970543;28;20482;-62
2022/03/12 06:04:49;;;;;;;23.48;8.40;;;;;;;;;;4970592;28;20557;-61
2022/03/12 06:07:15;;;;;;;21.33;8.05;;;;;;;;;;4970282;28;20373;-61
2022/03/12 06:09:40;;;;;;;20.85;7.22;;;;;;;;;;4970703;28;20451;-62
2022/03/12 06:12:11;;;;;;;23.23;8.05;;;;;;;;;;4970712;28;20029;-62
2022/03/12 06:14:38;;;;;;;23.08;8.32;;;;;;;;;;4969608;28;20571;-61
2022/03/12 06:17:04;;;;;;;28.88;8.60;;;;;;;;;;4970263;28;20512;-61
2022/03/12 06:19:30;;;;;;;18.65;7.22;;;;;;;;;;4969685;28;20328;-62
2022/03/12 06:21:56;;;;;;;17.67;7.72;;;;;;;;;;4952518;28;20311;-62
2022/03/12 06:24:22;;;;;;;14.30;6.35;;;;;;;;;;4969720;28;20052;-62
2022/03/12 06:26:47;;;;;;;16.15;8.07;;;;;;;;;;4970489;28;20025;-61
2022/03/12 06:29:13;;;;;;;20.13;7.55;;;;;;;;;;4970146;28;20512;-62
2022/03/12 06:31:42;;;;;;;21.27;8.45;;;;;;;;;;4969997;28;20306;-62
2022/03/12 06:34:10;;;;;;;18.00;8.20;;;;;;;;;;4969559;28;20033;-61
2022/03/12 06:36:39;;;;;;;20.27;7.88;;;;;;;;;;4969945;28;20460;-61
2022/03/12 06:39:06;;;;;;;17.75;7.53;;;;;;;;;;4969911;28;20455;-62
2022/03/12 06:41:35;;;;;;;16.23;7.25;;;;;;;;;;4969845;28;20500;-62
2022/03/12 06:44:02;;;;;;;17.10;7.63;;;;;;;;;;4969573;28;20376;-62
2022/03/12 06:46:28;;;;;;;25.10;9.20;;;;;;;;;;4947831;28;20081;-62
2022/03/12 06:48:53;;;;;;;22.25;7.07;;;;;;;;;;4965846;28;20084;-62
2022/03/12 06:51:18;;;;;;;19.95;8.13;;;;;;;;;;4969337;28;20413;-61
2022/03/12 06:53:44;;;;;;;17.40;7.20;;;;;;;;;;4970628;28;20044;-61
2022/03/12 06:56:09;;;;;;;16.88;7.30;;;;;;;;;;4969239;28;20433;-62
2022/03/12 06:58:35;;;;;;;18.80;6.95;;;;;;;;;;4969452;28;20503;-62
2022/03/12 07:01:02;;;;;;;14.93;6.97;;;;;;;;;;4969257;28;20440;-62
2022/03/12 07:03:27;;;;;;;16.58;7.32;;;;;;;;;;4970871;28;20535;-62
2022/03/12 07:05:52;;;;;;;22.65;7.47;;;;;;;;;;4969293;28;20479;-62
2022/03/12 07:08:19;;;;;;;20.23;7.70;;;;;;;;;;4969021;28;20348;-62
2022/03/12 07:10:45;;;;;;;15.60;6.70;;;;;;;;;;4969163;28;20376;-61
2022/03/12 07:13:10;;;;;;;20.60;7.90;;;;;;;;;;4969875;28;20341;-62
2022/03/12 07:15:36;;;;;;;18.45;7.10;;;;;;;;;;4951387;28;20322;-62
2022/03/12 07:18:01;;;;;;;16.85;6.97;;;;;;;;;;4969361;28;20444;-62
2022/03/12 07:20:26;;;;;;;19.70;7.72;;;;;;;;;;4968875;28;20425;-62
2022/03/12 07:22:52;;;;;;;20.63;7.82;;;;;;;;;;4951334;28;20420;-62
2022/03/12 07:25:17;;;;;;;15.95;7.15;;;;;;;;;;4970841;28;20041;-63
2022/03/12 07:27:43;;;;;;;17.48;6.40;;;;;;;;;;4968973;28;20494;-62
2022/03/12 07:30:11;;;;;;;18.75;7.65;;;;;;;;;;4969534;28;20444;-62
2022/03/12 07:32:36;;;;;;;19.25;7.35;;;;;;;;;;4969010;28;20367;-62
2022/03/12 07:35:05;;;;;;;17.30;7.15;;;;;;;;;;4969629;28;20041;-63
2022/03/12 07:37:31;;;;;;;17.42;5.65;;;;;;;;;;4969001;28;20439;-62
2022/03/12 07:39:57;;;;;;;14.27;6.32;;;;;;;;;;4968796;28;20468;-62
2022/03/12 07:42:23;;;;;;;14.13;6.15;;;;;;;;;;4968864;28;20352;-62
2022/03/12 07:44:49;;;;;;;16.13;6.60;;;;;;;;;;4969165;28;20408;-62
2022/03/12 07:47:14;;;;;;;15.88;7.32;;;;;;;;;;4968611;28;20146;-62
2022/03/12 07:49:41;;;;;;;16.85;6.60;;;;;;;;;;4969149;28;21259;-62
2022/03/12 07:52:06;;;;;;;16.00;6.90;;;;;;;;;;4968903;28;20361;-62
2022/03/12 07:54:33;;;;;;;17.52;7.35;;;;;;;;;;4950813;28;20432;-65
2022/03/12 07:56:58;;;;;;;15.68;7.30;;;;;;;;;;4969404;28;20439;-62
2022/03/12 07:59:27;;;;;;;15.88;6.55;;;;;;;;;;4968815;28;20437;-63
2022/03/12 08:01:52;;;;;;;14.45;6.22;;;;;;;;;;4968910;28;20421;-62
2022/03/12 08:04:17;;;;;;;19.35;6.53;;;;;;;;;;4968876;28;20472;-62
2022/03/12 08:06:43;;;;;;;16.50;7.18;;;;;;;;;;4970202;28;20018;-62
2022/03/12 08:09:09;;;;;;;17.13;6.10;;;;;;;;;;4968653;28;20041;-62
2022/03/12 08:11:35;;;;;;;15.27;5.78;;;;;;;;;;4968946;28;20044;-63
2022/03/12 08:14:08;;;;;;;19.13;6.68;;;;;;;;;;4969432;28;20033;-62
2022/03/12 08:16:35;;;;;;;15.07;6.03;;;;;;;;;;4968744;28;20129;-62
2022/03/12 08:19:06;;;;;;;15.98;6.40;;;;;;;;;;4968114;28;20315;-62
2022/03/12 08:21:32;;;;;;;17.48;6.78;;;;;;;;;;4969481;28;20392;-63
2022/03/12 08:23:58;;;;;;;14.23;5.75;;;;;;;;;;4971943;28;20083;-62
2022/03/12 08:26:24;;;;;;;15.57;6.10;;;;;;;;;;4973130;28;20344;-63
2022/03/12 08:28:49;;;;;;;14.40;6.25;;;;;;;;;;4972409;28;20096;-62
2022/03/12 08:31:15;;;;;;;22.20;7.07;;;;;;;;;;4972440;28;20341;-62
2022/03/12 08:33:41;;;;;;;18.10;6.75;;;;;;;;;;4972127;28;20435;-62
2022/03/12 08:36:07;;;;;;;12.60;5.65;;;;;;;;;;4971723;28;20449;-63
2022/03/12 08:38:37;;;;;;;13.80;6.35;;;;;;;;;;4971982;28;20340;-63
2022/03/12 08:41:07;;;;;;;13.77;5.13;;;;;;;;;;4971828;28;20357;-62
2022/03/12 08:43:33;;;;;;;15.48;6.05;;;;;;;;;;4971728;28;20380;-62
2022/03/12 08:46:05;;;;;;;13.63;5.05;;;;;;;;;;4971617;28;20373;-63
2022/03/12 08:48:31;;;;;;;16.45;6.15;;;;;;;;;;4971845;28;20457;-62
2022/03/12 08:50:56;;;;;;;10.02;5.20;;;;;;;;;;4972256;28;20435;-62
2022/03/12 08:53:21;;;;;;;11.50;5.55;;;;;;;;;;4971999;28;20421;-63
2022/03/12 08:55:48;;;;;;;12.30;5.75;;;;;;;;;;4971647;28;20507;-62
2022/03/12 08:58:13;;;;;;;12.50;5.20;;;;;;;;;;4971804;28;20333;-62
2022/03/12 09:00:39;;;;;;;15.48;5.53;;;;;;;;;;4972747;28;20339;-62
2022/03/12 09:03:05;;;;;;;9.52;4.63;;;;;;;;;;4972069;28;20333;-63
2022/03/12 09:05:31;;;;;;;10.68;5.35;;;;;;;;;;4972150;28;20429;-63
2022/03/12 09:07:57;;;;;;;14.57;5.22;;;;;;;;;;4971371;28;20384;-63
2022/03/12 09:10:23;;;;;;;17.02;5.15;;;;;;;;;;4971764;28;20021;-63
2022/03/12 09:12:48;;;;;;;14.50;5.47;;;;;;;;;;4970884;28;20437;-63
2022/03/12 09:15:14;;;;;;;15.10;5.63;;;;;;;;;;4971704;28;20056;-63
2022/03/12 09:17:40;;;;;;;11.82;5.35;;;;;;;;;;4971296;28;20459;-62
2022/03/12 09:20:06;;;;;;;12.85;5.78;;;;;;;;;;4971369;28;20464;-63
2022/03/12 09:22:31;;;;;;;14.52;5.32;;;;;;;;;;4970893;28;20571;-63
2022/03/12 09:24:57;;;;;;;15.00;5.57;;;;;;;;;;4971667;28;20433;-62
2022/03/12 09:27:22;;;;;;;16.23;6.07;;;;;;;;;;4971251;28;20388;-62
2022/03/12 09:29:47;;;;;;;12.52;5.72;;;;;;;;;;4971007;28;20160;-63
2022/03/12 09:32:13;;;;;;;12.07;5.45;;;;;;;;;;4971625;28;20431;-63
2022/03/12 09:34:38;;;;;;;12.70;5.32;;;;;;;;;;4971090;28;20353;-62
2022/03/12 09:37:05;;;;;;;14.82;5.20;;;;;;;;;;4970809;28;20394;-62
2022/03/12 09:39:30;;;;;;;13.48;5.20;;;;;;;;;;4972533;28;20030;-63
2022/03/12 09:41:56;;;;;;;16.98;5.97;;;;;;;;;;4970897;28;20021;-62
2022/03/12 09:44:22;;;;;;;13.80;4.85;;;;;;;;;;4970992;28;20479;-63
2022/03/12 09:46:47;;;;;;;13.18;5.93;;;;;;;;;;4970164;28;20553;-63
2022/03/12 09:49:13;;;;;;;14.13;5.05;;;;;;;;;;4970526;28;20364;-63
2022/03/12 09:51:39;;;;;;;12.07;5.28;;;;;;;;;;4971860;28;20416;-62
2022/03/12 09:54:04;;;;;;;15.10;5.38;;;;;;;;;;4970393;28;20527;-63
2022/03/12 09:56:30;;;;;;;11.35;5.47;;;;;;;;;;4970878;28;20345;-62
2022/03/12 09:58:56;;;;;;;13.25;5.00;;;;;;;;;;4970513;28;20485;-62
2022/03/12 10:01:21;;;;;;;14.05;4.95;;;;;;;;;;4970922;28;20108;-62
2022/03/12 10:03:47;;;;;;;13.38;6.10;;;;;;;;;;4970378;28;20021;-63
2022/03/12 10:06:13;;;;;;;6.35;4.07;;;;;;;;;;4970134;28;20542;-63
2022/03/12 10:08:39;;;;;;;11.43;4.50;;;;;;;;;;4970344;28;20396;-63
2022/03/12 10:11:05;;;;;;;11.50;5.60;;;;;;;;;;4970315;28;20392;-62
2022/03/12 10:13:31;;;;;;;11.00;5.03;;;;;;;;;;4970272;28;20382;-63
2022/03/12 10:15:56;;;;;;;16.90;5.50;;;;;;;;;;4970845;28;20030;-62
2022/03/12 10:18:23;;;;;;;13.30;5.57;;;;;;;;;;4970137;28;20511;-63
2022/03/12 10:20:48;;;;;;;13.18;5.35;;;;;;;;;;4970010;28;20383;-63
2022/03/12 10:23:14;;;;;;;14.13;4.90;;;;;;;;;;4969742;28;20431;-63
2022/03/12 10:25:39;;;;;;;14.25;5.95;;;;;;;;;;4970075;28;20360;-63
2022/03/12 10:28:05;;;;;;;11.90;5.32;;;;;;;;;;4971417;28;20388;-63
2022/03/12 10:30:30;;;;;;;14.57;4.65;;;;;;;;;;4969906;28;20438;-63
2022/03/12 10:32:55;;;;;;;11.15;4.70;;;;;;;;;;4970197;28;20499;-63
2022/03/12 10:35:22;;;;;;;12.88;4.88;;;;;;;;;;4970080;28;20038;-63
2022/03/12 10:37:49;;;;;;;10.73;5.20;;;;;;;;;;4970876;28;20400;-63
2022/03/12 10:40:16;;;;;;;11.70;4.82;;;;;;;;;;4969790;28;20610;-63
2022/03/12 10:43:07;;;;;;;12.60;6.53;;;;;;;;;;4969705;28;20436;-63
2022/03/12 10:45:53;;;;;;;11.70;4.80;;;;;;;;;;4968956;28;20464;-63
2022/03/12 10:48:19;;;;;;;11.32;4.97;;;;;;;;;;4969310;28;20405;-62
2022/03/12 10:50:47;;;;;;;11.32;4.45;;;;;;;;;;4970027;28;20448;-63
2022/03/12 10:53:13;;;;;;;11.93;4.57;;;;;;;;;;4969552;28;20479;-63
2022/03/12 10:55:44;;;;;;;10.85;4.43;;;;;;;;;;4969273;28;20041;-62
2022/03/12 10:58:30;;;;;;;13.18;5.18;;;;;;;;;;4969495;28;20460;-63
2022/03/12 11:00:59;;;;;;;10.20;4.70;;;;;;;;;;4969977;28;20563;-62
2022/03/12 11:03:26;;;;;;;14.32;5.57;;;;;;;;;;4969697;28;20379;-63
2022/03/12 11:05:53;;;;;;;14.18;4.78;;;;;;;;;;4969170;28;20073;-62
2022/03/12 11:08:21;;;;;;;12.40;4.97;;;;;;;;;;4969448;28;20029;-63
2022/03/12 11:11:00;;;;;;;10.18;4.65;;;;;;;;;;4969778;28;20442;-63
2022/03/12 11:13:38;;;;;;;8.30;3.83;;;;;;;;;;4969141;28;20116;-63
2022/03/12 11:16:14;;;;;;;11.00;4.82;;;;;;;;;;4969359;28;20313;-63
2022/03/12 11:18:53;;;;;;;11.63;4.55;;;;;;;;;;4968959;28;20462;-63
2022/03/12 11:21:33;;;;;;;12.07;4.95;;;;;;;;;;4969521;28;20425;-63
2022/03/12 11:23:59;;;;;;;;;;;;;;;;;;4969578;28;20425;-62
2022/03/12 11:26:24;;;;;;;14.07;4.60;;;;;;;;;;4969265;28;19909;-63
2022/03/12 11:28:56;;;;;;;10.07;3.72;;;;;;;;;;4969503;28;20429;-63
2022/03/12 11:31:38;;;;;;;9.10;4.43;;;;;;;;;;4968723;28;20306;-64
2022/03/12 11:34:14;;;;;;;10.57;4.57;;;;;;;;;;4968977;28;20353;-62
2022/03/12 11:36:42;;;;;;;7.65;4.22;;;;;;;;;;4969592;28;20458;-63
2022/03/12 11:39:07;;;;;;;10.07;4.25;;;;;;;;;;4970369;28;20484;-62
2022/03/12 11:41:36;;;;;;;12.43;4.63;;;;;;;;;;4969051;28;20453;-63
2022/03/12 11:44:02;;;;;;;12.63;5.75;;;;;;;;;;4968906;28;20112;-63
2022/03/12 11:46:27;;;;;;;7.82;3.97;;;;;;;;;;4950982;28;20488;-63
2022/03/12 11:48:52;;;;;;;13.25;4.90;;;;;;;;;;4969078;28;20408;-63
2022/03/12 11:51:20;;;;;;;11.18;4.10;;;;;;;;;;4970524;28;20413;-63
2022/03/12 11:53:46;;;;;;;10.48;4.40;;;;;;;;;;4969036;28;20457;-62
2022/03/12 11:56:16;;;;;;;9.13;4.30;;;;;;;;;;4969168;28;20529;-63
2022/03/12 11:58:43;;;;;;;7.93;3.67;;;;;;;;;;4973461;28;20399;-63
2022/03/12 12:01:11;;;;;;;10.48;3.85;;;;;;;;;;4972704;28;20344;-63
2022/03/12 12:03:36;;;;;;;8.52;4.10;;;;;;;;;;4972487;28;20468;-63
2022/03/12 12:06:05;;;;;;;10.73;4.35;;;;;;;;;;4973344;28;20502;-63
2022/03/12 12:08:30;;;;;;;9.97;3.93;;;;;;;;;;4954078;28;20514;-63
2022/03/12 12:11:01;;;;;;;11.10;5.05;;;;;;;;;;4972195;28;20529;-63
2022/03/12 12:13:29;;;;;;;8.90;3.55;;;;;;;;;;4973890;28;20196;-63
2022/03/12 12:15:55;;;;;;;9.40;3.60;;;;;;;;;;4972680;28;20423;-63
2022/03/12 12:18:21;;;;;;;9.95;4.15;;;;;;;;;;4973129;28;20426;-63
2022/03/12 12:20:47;;;;;;;12.52;4.15;;;;;;;;;;4972487;28;20472;-63
2022/03/12 12:23:17;;;;;;;10.00;3.45;;;;;;;;;;4973328;28;20436;-63
2022/03/12 12:25:43;;;;;;;10.63;3.88;;;;;;;;;;4972440;28;20095;-63
2022/03/12 12:28:24;;;;;;;7.20;3.58;;;;;;;;;;4972213;28;20029;-62
2022/03/12 12:30:53;;;;;;;6.78;3.05;;;;;;;;;;4971665;28;20447;-63
2022/03/12 12:33:26;;;;;;;;;;;;;;;;;;4972453;28;20368;-63
2022/03/12 12:36:13;;;;;;;6.85;3.60;;;;;;;;;;4971578;28;20324;-63
2022/03/12 12:38:40;;;;;;;11.23;3.83;;;;;;;;;;4971731;28;20376;-63
2022/03/12 12:41:06;;;;;;;9.82;3.90;;;;;;;;;;4971805;28;20511;-62
2022/03/12 12:43:42;;;;;;;10.18;3.85;;;;;;;;;;4972159;28;20025;-63
2022/03/12 12:46:09;;;;;;;7.30;3.25;;;;;;;;;;4971782;28;20492;-63
2022/03/12 12:48:48;;;;;;;9.85;4.32;;;;;;;;;;4971861;28;20433;-63
2022/03/12 12:51:15;;;;;;;10.20;3.63;;;;;;;;;;4972768;28;20400;-65
2022/03/12 12:53:42;;;;;;;8.73;3.83;;;;;;;;;;4971672;28;20448;-63
2022/03/12 12:56:21;;;;;;;9.25;3.40;;;;;;;;;;4971351;28;20531;-63
2022/03/12 12:59:10;;;;;;;7.38;3.70;;;;;;;;;;4971727;28;20025;-62
2022/03/12 13:01:41;;;;;;;8.45;3.45;;;;;;;;;;4954662;28;20424;-63
2022/03/12 13:04:09;;;;;;;7.93;3.60;;;;;;;;;;4971725;28;20405;-63
2022/03/12 13:06:40;;;;;;;7.63;3.33;;;;;;;;;;4954679;28;20369;-63
2022/03/12 13:09:08;;;;;;;7.40;3.40;;;;;;;;;;4971377;28;20052;-63
2022/03/12 13:11:42;;;;;;;8.25;3.45;;;;;;;;;;4972530;28;20344;-63
2022/03/12 13:14:10;;;;;;;6.35;3.13;;;;;;;;;;4971253;28;20029;-62
2022/03/12 13:16:57;;;;;;;9.55;3.92;;;;;;;;;;4971564;28;20375;-63
2022/03/12 13:19:28;;;;;;;8.50;3.67;;;;;;;;;;4963378;28;20384;-63
2022/03/12 13:22:02;;;;;;;9.93;3.67;;;;;;;;;;4971323;28;20435;-62
2022/03/12 13:24:29;;;;;;;7.07;3.42;;;;;;;;;;4971217;28;20052;-63
2022/03/12 13:26:55;;;;;;;8.20;3.42;;;;;;;;;;4971339;28;20344;-63
2022/03/12 13:29:21;;;;;;;6.75;3.55;;;;;;;;;;4972727;28;20080;-63
2022/03/12 13:31:48;;;;;;;9.60;4.22;;;;;;;;;;4970902;28;20333;-62
2022/03/12 13:34:15;;;;;;;6.40;3.65;;;;;;;;;;4970728;28;20376;-62
2022/03/12 13:36:45;;;;;;;7.78;3.38;;;;;;;;;;4970850;28;20502;-64
2022/03/12 13:39:12;;;;;;;6.85;3.17;;;;;;;;;;4972582;28;20432;-63
2022/03/12 13:41:38;;;;;;;6.80;3.08;;;;;;;;;;4971058;28;20459;-62
2022/03/12 13:44:03;;;;;;;9.27;3.70;;;;;;;;;;4972468;28;20380;-63
2022/03/12 13:46:30;;;;;;;10.20;3.83;;;;;;;;;;4970365;28;20045;-63
2022/03/12 13:49:03;;;;;;;8.95;3.28;;;;;;;;;;4970997;28;20457;-62
2022/03/12 13:51:29;;;;;;;6.65;3.42;;;;;;;;;;4970560;28;20428;-62
2022/03/12 13:54:02;;;;;;;10.68;3.13;;;;;;;;;;4970950;28;20411;-62
2022/03/12 13:56:29;;;;;;;6.72;3.38;;;;;;;;;;4971158;28;20571;-62
2022/03/12 13:59:03;;;;;;;8.43;4.03;;;;;;;;;;4970718;28;20496;-62
2022/03/12 14:01:36;;;;;;;6.35;3.40;;;;;;;;;;4970436;28;20480;-63
2022/03/12 14:04:03;;;;;;;6.75;3.38;;;;;;;;;;4970856;28;20432;-62
2022/03/12 14:06:32;;;;;;;6.10;3.13;;;;;;;;;;4970439;28;20436;-62
2022/03/12 14:08:59;;;;;;;10.68;3.65;;;;;;;;;;4970340;28;20345;-62
2022/03/12 14:11:58;;;;;;;6.45;3.22;;;;;;;;;;4970277;28;20440;-63
2022/03/12 14:14:26;;;;;;;8.07;3.40;;;;;;;;;;4963112;28;20391;-63
2022/03/12 14:16:58;;;;;;;6.90;2.92;;;;;;;;;;4970230;28;20025;-62
2022/03/12 14:19:26;;;;;;;9.18;2.92;;;;;;;;;;4969498;28;20388;-63
2022/03/12 14:22:02;;;;;;;7.25;3.25;;;;;;;;;;4970533;28;20132;-62
2022/03/12 14:24:33;;;;;;;6.93;3.13;;;;;;;;;;4963174;28;20448;-63
2022/03/12 14:27:06;;;;;;;10.73;3.30;;;;;;;;;;4970269;28;20037;-63
2022/03/12 14:29:33;;;;;;;9.68;3.25;;;;;;;;;;4970321;28;20021;-62
2022/03/12 14:32:02;;;;;;;8.45;3.67;;;;;;;;;;4970621;28;20494;-63